Time;durP1;ratioP1;P1;durP2;ratioP2;P2;SDS_P1;SDS_P2;PMS_P1;PMS_P2;Temp;Humidity;BMP_temperature;BMP_pressure;BME280_temperature;BME280_humidity;BME280_pressure;Samples;Min_cycle;Max_cycle;Signal;HPM_P1;HPM_P2
2023/04/08 00:00:27;;;;;;;22.27;7.95;;;;;;;8.10;86.84;101473.53;5025304;28;20041;-45
2023/04/08 00:02:54;;;;;;;12.35;6.45;;;;;;;8.08;86.75;101478.50;5021188;28;20045;-51
2023/04/08 00:05:21;;;;;;;17.77;6.78;;;;;;;8.05;86.96;101468.91;5012094;28;20045;-45
2023/04/08 00:07:48;;;;;;;17.13;6.75;;;;;;;7.99;87.03;101482.00;5021858;28;20068;-45
2023/04/08 00:10:15;;;;;;;12.55;5.95;;;;;;;7.98;87.17;101469.38;5024473;28;20141;-44
2023/04/08 00:12:41;;;;;;;14.38;6.68;;;;;;;7.98;87.06;101477.63;5030285;28;20053;-47
2023/04/08 00:15:08;;;;;;;10.43;6.32;;;;;;;7.97;87.10;101467.72;5029532;28;20045;-44
2023/04/08 00:17:35;;;;;;;17.33;6.45;;;;;;;7.95;87.14;101474.66;5030100;28;20427;-49
2023/04/08 00:20:02;;;;;;;14.40;5.63;;;;;;;7.91;87.10;101471.75;5026051;28;20064;-48
2023/04/08 00:22:29;;;;;;;17.67;6.32;;;;;;;7.87;87.49;101467.94;5030329;28;20045;-46
2023/04/08 00:24:57;;;;;;;12.30;5.80;;;;;;;7.86;87.31;101471.81;5030310;28;20061;-45
2023/04/08 00:27:25;;;;;;;12.00;6.03;;;;;;;7.85;87.49;101475.72;5023830;28;20049;-45
2023/04/08 00:29:51;;;;;;;17.00;6.25;;;;;;;7.85;87.52;101475.72;5033252;28;20509;-45
2023/04/08 00:32:18;;;;;;;14.70;7.13;;;;;;;7.84;87.60;101463.06;5035110;28;20057;-44
2023/04/08 00:34:45;;;;;;;17.27;6.75;;;;;;;7.82;87.64;101470.81;5022234;28;20038;-45
2023/04/08 00:37:12;;;;;;;12.30;6.03;;;;;;;7.80;87.85;101470.31;5021780;28;20136;-45
2023/04/08 00:39:38;;;;;;;18.08;8.15;;;;;;;7.79;87.93;101457.66;5024701;28;20072;-44
2023/04/08 00:42:05;;;;;;;17.10;7.15;;;;;;;7.79;87.90;101465.09;5025662;28;20048;-44
2023/04/08 00:44:32;;;;;;;24.85;9.07;;;;;;;7.80;87.92;101461.22;5027906;28;20037;-45
2023/04/08 00:46:58;;;;;;;16.00;7.40;;;;;;;7.78;87.99;101471.75;5023201;28;20519;-49
2023/04/08 00:49:25;;;;;;;15.60;7.10;;;;;;;7.77;88.14;101472.88;5014197;28;20042;-44
2023/04/08 00:51:54;;;;;;;13.60;7.30;;;;;;;7.76;88.14;101472.06;5028468;28;20060;-53
2023/04/08 00:54:21;;;;;;;19.00;8.75;;;;;;;7.74;88.25;101471.53;5021004;28;20511;-48
2023/04/08 00:56:48;;;;;;;13.52;5.50;;;;;;;7.78;88.13;101474.50;5019909;28;20132;-46
2023/04/08 00:59:16;;;;;;;17.65;6.75;;;;;;;7.75;88.39;101466.84;5020537;28;20393;-44
2023/04/08 01:01:57;;;;;;;14.30;6.15;;;;;;;7.71;88.39;101465.81;5023036;28;20060;-46
2023/04/08 01:04:48;;;;;;;16.65;7.22;;;;;;;7.71;88.52;101463.06;5027114;28;20044;-46
2023/04/08 01:07:29;;;;;;;11.02;5.90;;;;;;;7.68;88.53;101459.00;5025361;28;20060;-45
2023/04/08 01:10:01;;;;;;;15.50;6.05;;;;;;;7.66;88.72;101455.75;5023154;28;20045;-44
2023/04/08 01:12:30;;;;;;;22.55;6.45;;;;;;;7.66;88.65;101461.25;5019039;28;20056;-45
2023/04/08 01:15:07;;;;;;;18.63;6.85;;;;;;;7.67;88.51;101462.88;5029518;28;20057;-46
2023/04/08 01:17:36;;;;;;;9.55;6.43;;;;;;;7.71;88.64;101466.66;5011914;28;20113;-44
2023/04/08 01:20:06;;;;;;;14.32;6.18;;;;;;;7.73;88.69;101461.63;5024760;28;20045;-46
2023/04/08 01:23:02;;;;;;;15.23;5.75;;;;;;;7.74;88.87;101460.53;5005969;28;20478;-45
2023/04/08 01:25:31;;;;;;;13.50;5.45;;;;;;;7.75;88.76;101459.41;5002410;28;20057;-49
2023/04/08 01:28:00;;;;;;;9.68;5.03;;;;;;;7.78;88.93;101466.25;5011603;28;20046;-45
2023/04/08 01:30:29;;;;;;;17.40;6.30;;;;;;;7.80;88.92;101456.53;5019816;28;20084;-52
2023/04/08 01:32:58;;;;;;;15.10;5.30;;;;;;;7.81;89.01;101460.13;5019480;28;20046;-46
2023/04/08 01:35:25;;;;;;;13.05;5.38;;;;;;;7.83;89.13;101466.13;5025068;28;20045;-44
2023/04/08 01:37:54;;;;;;;14.73;5.72;;;;;;;7.88;89.30;101468.78;5024679;28;20050;-44
2023/04/08 01:40:21;;;;;;;12.10;5.80;;;;;;;7.89;89.13;101465.69;5027591;28;20148;-45
2023/04/08 01:42:49;;;;;;;10.50;5.07;;;;;;;7.91;89.13;101466.22;5024361;28;20036;-47
2023/04/08 01:45:17;;;;;;;11.82;5.07;;;;;;;7.93;89.33;101465.91;5019581;28;20086;-45
2023/04/08 01:47:47;;;;;;;12.00;5.43;;;;;;;7.92;89.44;101459.56;5026081;28;20053;-44
2023/04/08 01:50:15;;;;;;;10.05;4.85;;;;;;;7.92;89.59;101465.06;5023319;28;20060;-44
2023/04/08 01:52:44;;;;;;;13.48;6.25;;;;;;;7.92;89.67;101458.75;5025730;28;20095;-46
2023/04/08 01:55:11;;;;;;;17.40;6.20;;;;;;;7.93;89.67;101458.44;5025959;28;20056;-46
2023/04/08 01:57:40;;;;;;;12.40;5.93;;;;;;;7.92;89.76;101454.06;5026062;28;20870;-44
2023/04/08 02:00:10;;;;;;;10.43;4.70;;;;;;;7.90;89.71;101453.56;5026471;28;20046;-46
2023/04/08 02:02:37;;;;;;;12.82;6.55;;;;;;;7.88;89.89;101450.28;5022619;28;20073;-44
2023/04/08 02:05:05;;;;;;;13.88;7.63;;;;;;;7.87;89.80;101451.41;5024200;28;20049;-45
2023/04/08 02:07:32;;;;;;;9.38;5.22;;;;;;;7.86;90.11;101448.97;5022690;28;20056;-44
2023/04/08 02:09:58;;;;;;;9.73;4.97;;;;;;;7.85;90.13;101453.66;5021735;28;20057;-46
2023/04/08 02:12:27;;;;;;;14.75;4.78;;;;;;;7.83;90.08;101458.69;5028427;28;20124;-45
2023/04/08 02:14:54;;;;;;;8.48;5.32;;;;;;;7.83;90.20;101442.16;5027984;28;20067;-44
2023/04/08 02:17:31;;;;;;;13.60;5.00;;;;;;;7.82;90.08;101462.56;5028950;28;20103;-46
2023/04/08 02:20:07;;;;;;;18.33;8.85;;;;;;;7.80;90.26;101461.22;5028454;28;20048;-48
2023/04/08 02:22:43;;;;;;;19.48;7.85;;;;;;;7.79;90.31;101460.41;5029021;28;20072;-44
2023/04/08 02:25:15;;;;;;;17.15;10.45;;;;;;;7.76;90.27;101450.00;5025426;28;20404;-46
2023/04/08 02:27:44;;;;;;;17.17;9.05;;;;;;;7.74;90.35;101455.00;5021057;28;20037;-44
2023/04/08 02:30:12;;;;;;;14.20;6.93;;;;;;;7.71;90.14;101452.88;5027164;28;20053;-47
2023/04/08 02:32:39;;;;;;;20.67;7.97;;;;;;;7.70;90.32;101451.25;5027102;28;20041;-53
2023/04/08 02:35:07;;;;;;;18.10;8.48;;;;;;;7.69;90.42;101452.38;5028520;28;20045;-44
2023/04/08 02:37:34;;;;;;;17.33;7.78;;;;;;;7.67;90.46;101451.88;5027560;28;20514;-46
2023/04/08 02:40:00;;;;;;;16.17;6.78;;;;;;;7.66;90.45;101455.75;5028007;28;20466;-44
2023/04/08 02:42:27;;;;;;;16.05;6.70;;;;;;;7.66;90.47;101444.72;5027694;28;20049;-45
2023/04/08 02:44:54;;;;;;;11.18;5.55;;;;;;;7.70;90.49;101455.94;5028272;28;20049;-44
2023/04/08 02:47:21;;;;;;;18.30;5.95;;;;;;;7.70;90.73;101456.78;5010468;28;20407;-44
2023/04/08 02:49:51;;;;;;;12.68;6.13;;;;;;;7.71;90.45;101446.53;5028489;28;20045;-44
2023/04/08 02:52:18;;;;;;;13.05;5.70;;;;;;;7.69;90.54;101446.84;5028514;28;20462;-45
2023/04/08 02:54:45;;;;;;;15.90;5.35;;;;;;;7.67;90.60;101446.34;5027344;28;20422;-43
2023/04/08 02:57:11;;;;;;;10.88;5.95;;;;;;;7.66;90.78;101441.97;4998760;28;20042;-44
2023/04/08 02:59:39;;;;;;;9.50;5.15;;;;;;;7.65;91.00;101456.84;5029782;28;20049;-48
2023/04/08 03:02:06;;;;;;;10.27;4.55;;;;;;;7.65;91.22;101440.31;5060374;23;20063;-45
2023/04/08 03:04:33;;;;;;;9.63;4.82;;;;;;;7.66;91.33;101441.97;5012065;28;20076;-46
2023/04/08 03:06:59;;;;;;;8.25;4.70;;;;;;;7.67;91.25;101443.59;5027213;28;20073;-50
2023/04/08 03:09:26;;;;;;;17.63;5.63;;;;;;;7.69;91.42;101444.09;5009388;28;20046;-46
2023/04/08 03:11:53;;;;;;;9.00;4.68;;;;;;;7.69;91.31;101446.03;5030652;28;20053;-46
2023/04/08 03:14:21;;;;;;;12.57;4.45;;;;;;;7.69;91.46;101438.59;5030691;28;20050;-45
2023/04/08 03:16:47;;;;;;;9.95;4.80;;;;;;;7.71;91.48;101443.78;5031078;28;20038;-45
2023/04/08 03:19:15;;;;;;;10.98;5.68;;;;;;;7.71;91.49;101441.84;5031415;28;20494;-46
2023/04/08 03:21:41;;;;;;;10.43;4.57;;;;;;;7.72;91.73;101437.97;5031214;28;20041;-46
2023/04/08 03:24:08;;;;;;;15.93;6.10;;;;;;;7.71;91.63;101438.28;5031245;28;20491;-47
2023/04/08 03:26:35;;;;;;;8.07;3.97;;;;;;;7.73;91.77;101439.59;5032455;28;20451;-52
2023/04/08 03:29:01;;;;;;;8.85;3.63;;;;;;;7.74;91.89;101446.75;5031356;28;20038;-46
2023/04/08 03:31:28;;;;;;;9.80;3.83;;;;;;;7.76;91.74;101444.47;5031280;28;20128;-48
2023/04/08 03:33:55;;;;;;;6.55;3.78;;;;;;;7.75;91.61;101448.38;5031689;28;20390;-46
2023/04/08 03:36:22;;;;;;;12.77;4.30;;;;;;;7.74;91.72;101440.41;5030915;28;20049;-46
2023/04/08 03:38:48;;;;;;;7.82;4.20;;;;;;;7.74;91.78;101445.91;5030611;28;20053;-51
2023/04/08 03:41:16;;;;;;;11.63;3.05;;;;;;;7.70;91.71;101445.75;5031440;28;20076;-46
2023/04/08 03:43:43;;;;;;;6.13;2.78;;;;;;;7.68;91.88;101441.63;5030808;28;20475;-45
2023/04/08 03:46:09;;;;;;;7.88;3.45;;;;;;;7.63;91.77;101439.81;5030810;28;20049;-47
2023/04/08 03:48:36;;;;;;;8.02;2.83;;;;;;;7.59;91.82;101449.84;5013442;28;20041;-45
2023/04/08 03:51:03;;;;;;;7.68;4.28;;;;;;;7.59;91.99;101440.75;5030797;28;20391;-45
2023/04/08 03:53:30;;;;;;;10.05;3.40;;;;;;;7.57;91.87;101435.53;5030516;28;20128;-50
2023/04/08 03:55:56;;;;;;;11.05;4.53;;;;;;;7.55;91.78;101435.03;5030627;28;20063;-45
2023/04/08 03:58:23;;;;;;;9.15;3.72;;;;;;;7.51;92.14;101431.28;5012791;28;20060;-45
2023/04/08 04:00:50;;;;;;;11.30;4.00;;;;;;;7.48;92.03;101429.13;5030970;28;20037;-46
2023/04/08 04:03:17;;;;;;;11.10;4.18;;;;;;;7.45;92.28;101429.75;5030501;28;20085;-46
2023/04/08 04:05:44;;;;;;;14.68;5.10;;;;;;;7.43;92.33;101423.72;5030072;28;20088;-45
2023/04/08 04:08:11;;;;;;;15.13;6.45;;;;;;;7.45;92.49;101432.50;5018304;28;20056;-51
2023/04/08 04:10:37;;;;;;;17.35;6.20;;;;;;;7.45;92.41;101426.97;5028616;28;20041;-47
2023/04/08 04:13:04;;;;;;;16.98;7.85;;;;;;;7.45;92.39;101428.91;5030513;28;20045;-45
2023/04/08 04:15:31;;;;;;;26.63;11.68;;;;;;;7.44;92.35;101428.09;5029702;28;20049;-46
2023/04/08 04:17:58;;;;;;;29.15;10.82;;;;;;;7.41;92.51;101431.50;5036582;28;20061;-46
2023/04/08 04:20:24;;;;;;;17.75;7.03;;;;;;;7.38;92.41;101437.59;5030045;28;20095;-44
2023/04/08 04:22:51;;;;;;;21.80;10.45;;;;;;;7.37;92.60;101433.22;5030148;28;20103;-45
2023/04/08 04:25:18;;;;;;;18.25;8.50;;;;;;;7.34;92.76;101425.56;5030060;28;20053;-47
2023/04/08 04:27:45;;;;;;;23.45;12.02;;;;;;;7.34;92.76;101433.81;5030026;28;20434;-45
2023/04/08 04:30:14;;;;;;;27.83;13.10;;;;;;;7.32;92.90;101427.81;5029782;28;20483;-46
2023/04/08 04:32:41;;;;;;;19.90;10.48;;;;;;;7.30;92.79;101427.31;5030485;28;20060;-44
2023/04/08 04:35:12;;;;;;;17.13;7.88;;;;;;;7.27;92.85;101425.16;4999170;28;20047;-50
2023/04/08 04:37:38;;;;;;;11.52;5.20;;;;;;;7.25;92.98;101424.66;5029501;28;20045;-52
2023/04/08 04:40:06;;;;;;;12.23;5.03;;;;;;;7.24;92.78;101417.50;5029729;28;20049;-45
2023/04/08 04:42:33;;;;;;;10.57;4.72;;;;;;;7.22;93.04;101422.50;5011976;28;20069;-45
2023/04/08 04:44:59;;;;;;;12.57;6.32;;;;;;;7.19;92.77;101429.47;5028560;28;20124;-47
2023/04/08 04:47:26;;;;;;;9.98;4.28;;;;;;;7.18;93.11;101424.22;5029534;28;20052;-49
2023/04/08 04:49:53;;;;;;;11.27;4.35;;;;;;;7.17;93.08;101423.44;5030381;28;20056;-46
2023/04/08 04:52:19;;;;;;;10.18;4.82;;;;;;;7.15;92.99;101414.66;5029502;28;20059;-50
2023/04/08 04:54:46;;;;;;;9.63;4.22;;;;;;;7.14;93.24;101426.81;5030172;28;20112;-45
2023/04/08 04:57:13;;;;;;;8.00;4.15;;;;;;;7.13;93.20;101429.84;5029323;28;20376;-45
2023/04/08 04:59:40;;;;;;;8.82;4.70;;;;;;;7.10;93.16;101424.94;5029200;28;20069;-48
2023/04/08 05:02:06;;;;;;;12.70;4.35;;;;;;;7.07;93.45;101431.88;5029034;28;20060;-45
2023/04/08 05:04:33;;;;;;;9.65;5.25;;;;;;;7.05;93.61;101438.81;5030030;28;20081;-46
2023/04/08 05:07:00;;;;;;;8.45;4.32;;;;;;;7.05;93.47;101441.56;5029115;28;20103;-46
2023/04/08 05:09:28;;;;;;;16.70;5.38;;;;;;;6.98;93.46;101444.75;5029174;28;20083;-45
2023/04/08 05:11:55;;;;;;;10.52;4.90;;;;;;;6.97;93.83;101448.59;5029255;28;20045;-45
2023/04/08 05:14:22;;;;;;;15.82;5.13;;;;;;;6.96;93.64;101448.91;5026740;28;20064;-45
2023/04/08 05:16:48;;;;;;;9.38;4.40;;;;;;;6.96;93.70;101440.66;5028959;28;20049;-46
2023/04/08 05:19:15;;;;;;;10.88;4.60;;;;;;;6.90;93.70;101441.88;5028747;28;20111;-45
2023/04/08 05:21:41;;;;;;;11.43;4.60;;;;;;;6.90;93.97;101439.09;5027497;28;20042;-45
2023/04/08 05:24:08;;;;;;;8.45;4.45;;;;;;;6.92;93.72;101436.88;5029673;28;20541;-46
2023/04/08 05:26:36;;;;;;;8.88;4.55;;;;;;;6.91;94.06;101435.25;5029082;28;20046;-45
2023/04/08 05:29:03;;;;;;;14.98;4.78;;;;;;;6.88;93.92;101439.44;5028627;28;20045;-45
2023/04/08 05:31:29;;;;;;;9.90;4.28;;;;;;;6.89;94.16;101440.22;5028307;28;20474;-47
2023/04/08 05:33:56;;;;;;;11.88;4.72;;;;;;;6.90;93.91;101442.69;5027704;28;20072;-45
2023/04/08 05:36:23;;;;;;;8.40;4.32;;;;;;;6.91;94.21;101433.28;5041936;28;20049;-46
2023/04/08 05:38:50;;;;;;;10.45;4.78;;;;;;;6.93;94.16;101450.34;5028725;28;20085;-45
2023/04/08 05:41:17;;;;;;;20.27;4.68;;;;;;;6.93;93.97;101442.09;5029373;28;20045;-45
2023/04/08 05:43:43;;;;;;;9.20;4.05;;;;;;;6.94;94.38;101440.13;5019672;28;20045;-45
2023/04/08 05:46:10;;;;;;;9.23;3.70;;;;;;;6.95;94.30;101453.59;5027500;28;20041;-45
2023/04/08 05:48:37;;;;;;;11.98;5.22;;;;;;;6.94;94.13;101451.13;5028695;28;20045;-45
2023/04/08 05:51:04;;;;;;;13.40;4.68;;;;;;;6.92;94.24;101456.13;5028270;28;20041;-45
2023/04/08 05:53:31;;;;;;;6.47;4.35;;;;;;;6.91;94.44;101449.00;5028747;28;20060;-46
2023/04/08 05:55:57;;;;;;;13.93;4.18;;;;;;;6.91;94.79;101449.00;5028863;28;20048;-45
2023/04/08 05:58:24;;;;;;;8.98;3.95;;;;;;;6.89;94.81;101454.81;5029322;28;20487;-45
2023/04/08 06:00:51;;;;;;;13.10;4.30;;;;;;;6.90;94.94;101458.38;5028054;28;20056;-46
2023/04/08 06:03:18;;;;;;;9.07;4.35;;;;;;;6.90;94.99;101458.38;5028834;28;20045;-47
2023/04/08 06:05:46;;;;;;;9.02;3.55;;;;;;;6.94;95.18;101462.97;5028561;28;20462;-45
2023/04/08 06:08:13;;;;;;;8.25;4.15;;;;;;;6.98;95.24;101464.00;5026255;28;20050;-45
2023/04/08 06:10:39;;;;;;;10.63;3.97;;;;;;;7.05;95.60;101466.34;5028484;28;20168;-45
2023/04/08 06:13:06;;;;;;;6.50;3.90;;;;;;;7.10;95.51;101469.00;5022771;28;20050;-45
2023/04/08 06:15:33;;;;;;;7.25;3.90;;;;;;;7.18;95.86;101471.03;5029527;28;20084;-46
2023/04/08 06:18:00;;;;;;;15.70;4.75;;;;;;;7.24;95.78;101475.34;5028484;28;20041;-48
2023/04/08 06:20:27;;;;;;;10.68;4.00;;;;;;;7.27;95.62;101471.97;5028416;28;20060;-45
2023/04/08 06:22:54;;;;;;;9.30;4.30;;;;;;;7.31;95.71;101470.25;5028590;28;20053;-45
2023/04/08 06:25:20;;;;;;;16.50;3.97;;;;;;;7.37;95.77;101482.78;5028806;28;20049;-45
2023/04/08 06:27:47;;;;;;;6.97;4.22;;;;;;;7.39;95.90;101472.28;5028213;28;20580;-45
2023/04/08 06:30:15;;;;;;;6.72;4.47;;;;;;;7.45;95.96;101481.25;5028574;28;20099;-45
2023/04/08 06:32:42;;;;;;;9.52;4.82;;;;;;;7.50;95.83;101473.72;5030482;28;20041;-46
2023/04/08 06:35:08;;;;;;;9.00;4.25;;;;;;;7.54;96.21;101473.94;5033028;28;20120;-49
2023/04/08 06:37:37;;;;;;;9.15;4.07;;;;;;;7.58;96.08;101469.41;5032279;28;20103;-49
2023/04/08 06:40:05;;;;;;;13.00;3.85;;;;;;;7.62;95.94;101476.78;5032581;28;20045;-45
2023/04/08 06:42:32;;;;;;;9.57;4.32;;;;;;;7.68;96.11;101481.03;5032418;28;20049;-46
2023/04/08 06:44:58;;;;;;;9.65;4.30;;;;;;;7.71;96.30;101483.19;5031779;28;20049;-46
2023/04/08 06:47:25;;;;;;;6.53;3.97;;;;;;;7.73;96.28;101486.44;5031821;28;20069;-45
2023/04/08 06:49:53;;;;;;;11.57;4.68;;;;;;;7.76;96.39;101491.34;5014939;28;20502;-48
2023/04/08 06:52:20;;;;;;;11.27;4.60;;;;;;;7.78;96.47;101491.84;5031805;28;20466;-48
2023/04/08 06:54:46;;;;;;;8.63;3.80;;;;;;;7.80;96.44;101492.38;5032110;28;20049;-45
2023/04/08 06:57:13;;;;;;;8.95;3.75;;;;;;;7.81;96.70;101499.50;5013694;28;20049;-45
2023/04/08 06:59:40;;;;;;;7.10;4.15;;;;;;;7.83;96.60;101501.97;5032080;28;20060;-46
2023/04/08 07:02:06;;;;;;;8.02;4.15;;;;;;;7.84;96.86;101498.88;5031517;28;20059;-45
2023/04/08 07:04:33;;;;;;;9.57;3.60;;;;;;;7.87;96.80;101497.44;5031825;28;20136;-45
2023/04/08 07:07:00;;;;;;;8.55;3.53;;;;;;;7.88;96.95;101501.84;5031850;28;20048;-46
2023/04/08 07:09:27;;;;;;;9.95;3.75;;;;;;;7.89;96.99;101503.47;5031423;28;20073;-47
2023/04/08 07:11:54;;;;;;;9.40;3.65;;;;;;;7.90;97.08;101505.94;5031385;28;20099;-44
2023/04/08 07:14:21;;;;;;;6.82;4.05;;;;;;;7.93;97.03;101512.78;5022759;28;20129;-46
2023/04/08 07:16:48;;;;;;;7.38;3.28;;;;;;;7.97;97.02;101511.84;5027781;28;20049;-45
2023/04/08 07:19:15;;;;;;;13.55;4.75;;;;;;;7.98;96.83;101513.47;5030191;28;20115;-47
2023/04/08 07:21:41;;;;;;;12.82;3.95;;;;;;;8.03;97.14;101520.00;5031018;28;20064;-45
2023/04/08 07:24:08;;;;;;;10.88;3.67;;;;;;;8.05;97.11;101517.75;5031548;28;20368;-45
2023/04/08 07:26:35;;;;;;;9.27;3.28;;;;;;;8.10;97.19;101517.66;5017285;28;20474;-45
2023/04/08 07:29:01;;;;;;;10.75;3.28;;;;;;;8.14;97.29;101511.19;5031489;28;20503;-46
2023/04/08 07:31:28;;;;;;;6.95;3.30;;;;;;;8.20;97.32;101514.66;5030852;28;20472;-45
2023/04/08 07:33:55;;;;;;;13.55;4.35;;;;;;;8.26;97.21;101513.41;5030494;28;20519;-46
2023/04/08 07:36:22;;;;;;;7.03;2.75;;;;;;;8.33;97.20;101513.84;5031044;28;20045;-48
2023/04/08 07:38:48;;;;;;;14.18;3.92;;;;;;;8.40;97.27;101520.53;5030887;28;20046;-46
2023/04/08 07:41:16;;;;;;;6.55;3.28;;;;;;;8.46;97.19;101526.75;5031432;28;20045;-46
2023/04/08 07:43:42;;;;;;;4.22;2.60;;;;;;;8.50;96.90;101527.75;5030350;28;20135;-45
2023/04/08 07:46:09;;;;;;;8.48;2.42;;;;;;;8.53;96.89;101525.19;5031034;28;20111;-46
2023/04/08 07:48:36;;;;;;;5.15;2.40;;;;;;;8.56;96.94;101521.00;5013105;28;20053;-46
2023/04/08 07:51:07;;;;;;;10.85;2.42;;;;;;;8.62;96.85;101532.72;5030686;28;20546;-46
2023/04/08 07:53:39;;;;;;;8.00;2.75;;;;;;;8.72;96.76;101543.53;5030830;28;20053;-45
2023/04/08 07:56:17;;;;;;;6.15;2.30;;;;;;;8.81;96.72;101542.47;5029839;28;20469;-45
2023/04/08 07:58:45;;;;;;;6.75;2.20;;;;;;;8.89;96.64;101544.47;5033605;28;20080;-45
2023/04/08 08:01:20;;;;;;;5.18;2.15;;;;;;;9.00;96.32;101556.09;5030374;28;20467;-46
2023/04/08 08:03:50;;;;;;;9.18;3.05;;;;;;;9.05;96.16;101555.97;5018006;28;20389;-48
2023/04/08 08:06:19;;;;;;;6.43;1.88;;;;;;;9.12;96.14;101559.91;5029959;28;20045;-44
2023/04/08 08:08:46;;;;;;;8.13;1.90;;;;;;;9.21;96.01;101559.13;5030129;28;20056;-46
2023/04/08 08:11:13;;;;;;;9.35;3.22;;;;;;;9.27;96.00;101550.38;5030027;28;20064;-50
2023/04/08 08:13:40;;;;;;;6.82;1.70;;;;;;;9.37;95.79;101557.59;5029779;28;20458;-51
2023/04/08 08:16:10;;;;;;;4.53;1.38;;;;;;;9.45;95.72;101570.66;5030020;28;20061;-46
2023/04/08 08:18:38;;;;;;;10.15;1.58;;;;;;;9.53;95.48;101561.59;5030556;28;20155;-46
2023/04/08 08:21:06;;;;;;;4.63;1.20;;;;;;;9.58;95.31;101567.78;5030259;28;20049;-46
2023/04/08 08:23:33;;;;;;;2.50;1.13;;;;;;;9.64;95.21;101565.69;5030388;28;20037;-45
2023/04/08 08:26:01;;;;;;;4.25;1.23;;;;;;;9.65;94.51;101568.16;5024104;28;20515;-47
2023/04/08 08:28:28;;;;;;;4.60;1.38;;;;;;;9.71;94.45;101575.16;5029062;28;20067;-45
2023/04/08 08:30:55;;;;;;;3.85;1.40;;;;;;;9.82;94.44;101577.66;5030882;28;20083;-46
2023/04/08 08:33:22;;;;;;;2.90;1.30;;;;;;;9.96;94.39;101579.16;5030350;28;20446;-46
2023/04/08 08:35:48;;;;;;;8.60;1.30;;;;;;;10.10;94.58;101574.31;5012075;28;20631;-46
2023/04/08 08:38:16;;;;;;;3.95;1.20;;;;;;;10.22;94.47;101574.53;5029698;28;20576;-45
2023/04/08 08:40:44;;;;;;;4.25;1.05;;;;;;;10.38;94.64;101574.88;5029631;28;20206;-49
2023/04/08 08:43:11;;;;;;;10.85;2.30;;;;;;;10.51;94.95;101575.88;5029779;28;20091;-46
2023/04/08 08:45:39;;;;;;;7.43;1.48;;;;;;;10.74;95.95;101578.16;5029896;28;20439;-45
2023/04/08 08:48:09;;;;;;;6.00;1.35;;;;;;;11.11;97.16;101564.75;5030282;28;20051;-49
2023/04/08 08:50:36;;;;;;;4.20;1.27;;;;;;;11.52;98.11;101565.78;5011676;28;20072;-46
2023/04/08 08:53:03;;;;;;;8.50;1.88;;;;;;;11.93;97.33;101575.44;5029498;28;20049;-48
2023/04/08 08:55:32;;;;;;;1.13;0.85;;;;;;;12.13;95.18;101569.94;5028158;28;20045;-49
2023/04/08 08:58:19;;;;;;;7.78;1.58;;;;;;;12.05;93.24;101572.75;5029856;28;20091;-46
2023/04/08 09:00:46;;;;;;;6.90;1.17;;;;;;;11.88;92.00;101567.31;5029088;28;20049;-45
2023/04/08 09:03:17;;;;;;;4.80;1.08;;;;;;;11.73;91.41;101565.09;5029549;28;20053;-45
2023/04/08 09:05:53;;;;;;;6.20;1.48;;;;;;;11.60;90.80;101573.25;5029665;28;20056;-45
2023/04/08 09:08:35;;;;;;;5.13;1.20;;;;;;;11.52;90.51;101565.78;5029440;28;20427;-46
2023/04/08 09:11:17;;;;;;;8.90;1.38;;;;;;;11.46;89.77;101569.88;5029551;28;20045;-46
2023/04/08 09:13:45;;;;;;;2.97;1.10;;;;;;;11.52;89.59;101559.41;5029244;28;20048;-47
2023/04/08 09:16:15;;;;;;;5.78;1.13;;;;;;;12.03;88.90;101563.97;5029290;28;20762;-44
2023/04/08 09:18:44;;;;;;;5.85;1.48;;;;;;;12.62;87.13;101551.63;5010931;28;20148;-44
2023/04/08 09:21:13;;;;;;;11.63;1.58;;;;;;;13.62;85.55;101556.84;5029362;28;20042;-46
2023/04/08 09:23:44;;;;;;;3.08;1.20;;;;;;;14.47;83.23;101562.41;5029950;28;20049;-48
2023/04/08 09:26:12;;;;;;;8.60;1.85;;;;;;;14.65;81.99;101558.19;5018630;28;20080;-45
2023/04/08 09:28:40;;;;;;;15.55;1.80;;;;;;;14.67;81.56;101564.19;5029033;28;20041;-50
2023/04/08 09:31:27;;;;;;;6.05;1.20;;;;;;;14.84;81.00;101561.13;5027234;28;20056;-45
2023/04/08 09:34:01;;;;;;;8.18;1.42;;;;;;;15.15;79.95;101558.44;5029299;28;20049;-45
2023/04/08 09:36:27;;;;;;;4.47;1.10;;;;;;;15.53;77.87;101566.28;5029317;28;20042;-45
2023/04/08 09:38:55;;;;;;;5.72;1.38;;;;;;;15.57;76.37;101561.59;5030112;28;20055;-46
2023/04/08 09:41:23;;;;;;;5.90;1.40;;;;;;;15.87;74.48;101555.56;5029445;28;20048;-48
2023/04/08 09:43:53;;;;;;;2.88;1.30;;;;;;;16.28;72.58;101561.34;5029328;28;20045;-45
2023/04/08 09:46:31;;;;;;;4.80;1.35;;;;;;;16.79;71.85;101569.69;5015659;28;20053;-47
2023/04/08 09:49:06;;;;;;;5.55;1.40;;;;;;;16.80;70.17;101569.34;5028920;28;20054;-40
2023/04/08 09:51:52;;;;;;;8.02;1.52;;;;;;;16.59;69.76;101562.47;5023073;28;20076;-44
2023/04/08 09:54:22;;;;;;;5.43;1.20;;;;;;;16.85;68.00;101565.44;5025958;28;20045;-44
2023/04/08 09:56:59;;;;;;;6.63;1.42;;;;;;;17.17;67.11;101578.09;5032145;28;20045;-44
2023/04/08 09:59:32;;;;;;;3.85;1.08;;;;;;;17.47;65.92;101565.06;5015369;28;20049;-45
2023/04/08 10:02:06;;;;;;;6.07;1.30;;;;;;;17.64;64.82;101564.63;5026128;28;20057;-49
2023/04/08 10:04:40;;;;;;;4.47;1.48;;;;;;;17.82;64.04;101570.50;5026265;28;20104;-48
2023/04/08 10:07:08;;;;;;;10.80;3.42;;;;;;;17.92;62.27;101563.50;5026332;28;20049;-47
2023/04/08 10:09:37;;;;;;;9.43;2.53;;;;;;;17.97;61.42;101575.19;5031919;28;20125;-45
2023/04/08 10:12:04;;;;;;;7.53;1.65;;;;;;;18.01;60.66;101564.03;5023128;28;20046;-46
2023/04/08 10:14:31;;;;;;;9.07;1.92;;;;;;;17.74;59.96;101562.38;5027138;28;20511;-45
2023/04/08 10:17:23;;;;;;;4.38;1.17;;;;;;;17.73;60.38;101569.16;5030430;28;20049;-45
2023/04/08 10:19:49;;;;;;;6.30;1.90;;;;;;;17.72;58.87;101553.53;5028229;28;20265;-46
2023/04/08 10:22:47;;;;;;;5.10;1.73;;;;;;;17.70;58.99;101567.09;5027568;28;20080;-46
2023/04/08 10:25:14;;;;;;;4.25;1.17;;;;;;;17.73;57.97;101567.19;5019821;28;20053;-47
2023/04/08 10:27:42;;;;;;;7.60;1.67;;;;;;;17.70;57.76;101578.31;5014671;28;20099;-47
2023/04/08 10:30:42;;;;;;;6.00;0.98;;;;;;;17.68;57.81;101564.69;5030041;28;20499;-50
2023/04/08 10:33:31;;;;;;;5.38;1.38;;;;;;;17.38;57.24;101564.50;5006039;28;20041;-48
2023/04/08 10:36:10;;;;;;;3.80;1.30;;;;;;;16.94;58.08;101566.03;5026509;28;20071;-45
2023/04/08 10:38:38;;;;;;;5.70;1.20;;;;;;;16.91;58.00;101558.38;5027188;28;20051;-45
2023/04/08 10:41:05;;;;;;;8.40;1.88;;;;;;;17.12;57.59;101553.22;5024036;28;20057;-46
2023/04/08 10:43:34;;;;;;;8.63;2.45;;;;;;;17.24;56.87;101564.22;5022954;28;20123;-46
2023/04/08 10:46:01;;;;;;;5.88;1.73;;;;;;;17.13;56.70;101552.00;5027021;28;20042;-49
2023/04/08 10:48:28;;;;;;;4.03;1.30;;;;;;;16.97;56.98;101556.91;5032084;28;20052;-46
2023/04/08 10:51:05;;;;;;;6.05;1.63;;;;;;;16.77;56.91;101549.69;5028840;28;20043;-47
2023/04/08 10:53:38;;;;;;;7.35;2.38;;;;;;;16.53;57.16;101547.16;5028932;28;20159;-45
2023/04/08 10:56:11;;;;;;;2.70;1.40;;;;;;;16.32;57.42;101542.69;5020857;28;20486;-47
2023/04/08 10:58:53;;;;;;;6.50;2.95;;;;;;;16.03;58.00;101536.81;5020171;28;20053;-47
2023/04/08 11:01:20;;;;;;;5.40;1.98;;;;;;;15.29;58.80;101546.03;5026221;28;20075;-45
2023/04/08 11:03:47;;;;;;;5.95;1.45;;;;;;;14.56;60.18;101543.59;5030789;28;20055;-48
2023/04/08 11:06:16;;;;;;;8.10;1.67;;;;;;;14.15;61.27;101544.66;5028815;28;20046;-45
2023/04/08 11:08:46;;;;;;;7.18;1.30;;;;;;;14.00;61.96;101526.69;5031274;28;20052;-48
2023/04/08 11:11:13;;;;;;;5.95;2.13;;;;;;;14.01;62.23;101539.47;5031107;28;20570;-45
2023/04/08 11:13:42;;;;;;;4.80;1.15;;;;;;;13.99;62.64;101527.88;5028545;28;20053;-46
2023/04/08 11:16:20;;;;;;;15.60;2.20;;;;;;;13.99;63.00;101532.63;5021008;28;20510;-45
2023/04/08 11:18:49;;;;;;;12.93;2.85;;;;;;;13.98;63.12;101531.81;5027323;28;20507;-46
2023/04/08 11:21:16;;;;;;;8.15;1.48;;;;;;;14.00;63.42;101532.25;5028911;28;20149;-47
2023/04/08 11:23:43;;;;;;;9.65;1.65;;;;;;;13.92;63.80;101527.66;5031623;28;20116;-46
2023/04/08 11:26:10;;;;;;;4.10;1.45;;;;;;;13.86;63.91;101517.91;5024911;28;20579;-46
2023/04/08 11:28:37;;;;;;;8.02;2.30;;;;;;;13.78;64.46;101531.94;5022783;28;20866;-45
2023/04/08 11:31:05;;;;;;;6.50;2.33;;;;;;;13.73;64.56;101523.81;5031285;28;20041;-46
2023/04/08 11:33:33;;;;;;;8.25;1.77;;;;;;;13.64;64.84;101521.13;5012954;28;20103;-46